Time;durP1;ratioP1;P1;durP2;ratioP2;P2;SDS_P1;SDS_P2;PMS_P1;PMS_P2;Temp;Humidity;BMP_temperature;BMP_pressure;BME280_temperature;BME280_humidity;BME280_pressure;Samples;Min_cycle;Max_cycle;Signal;HPM_P1;HPM_P2
2024/01/22 00:01:24;;;;;;;;;;;;;;;-1.40;68.51;95596.41;5054838;28;20297;-70
2024/01/22 00:03:49;;;;;;;;;;;;;;;-2.05;71.72;95583.25;5060468;28;19973;-70
2024/01/22 00:06:15;;;;;;;;;;;;;;;-1.79;69.78;95572.88;5055232;28;19936;-71
2024/01/22 00:08:40;;;;;;;;;;;;;;;-1.25;70.60;95561.41;5055411;28;19999;-70
2024/01/22 00:11:05;;;;;;;;;;;;;;;-0.45;64.47;95551.53;5061421;28;19959;-71
2024/01/22 00:13:31;;;;;;;;;;;;;;;-0.57;64.42;95545.41;5066557;28;19967;-70
2024/01/22 00:15:56;;;;;;;;;;;;;;;-1.41;71.14;95550.34;5059232;28;19924;-70
2024/01/22 00:18:21;;;;;;;;;;;;;;;-0.04;62.95;95535.53;5070066;28;19955;-70
2024/01/22 00:20:46;;;;;;;;;;;;;;;-0.73;64.69;95532.59;5057752;28;19963;-70
2024/01/22 00:23:12;;;;;;;;;;;;;;;-0.03;63.94;95526.72;5057888;28;19983;-70
2024/01/22 00:25:37;;;;;;;;;;;;;;;-0.12;62.74;95535.28;5063348;28;20381;-71
2024/01/22 00:28:02;;;;;;;;;;;;;;;0.74;60.43;95524.50;5064070;28;20110;-70
2024/01/22 00:30:27;;;;;;;;;;;;;;;0.71;58.67;95509.84;5058478;28;20464;-70
2024/01/22 00:32:53;;;;;;;;;;;;;;;-0.08;61.87;95513.16;5056687;28;19924;-71
2024/01/22 00:35:18;;;;;;;;;;;;;;;0.48;60.40;95501.13;5057726;28;19931;-70
2024/01/22 00:37:43;;;;;;;;;;;;;;;0.49;60.01;95497.56;5054714;28;20051;-70
2024/01/22 00:40:09;;;;;;;;;;;;;;;-1.18;66.08;95464.31;5056742;28;19925;-71
2024/01/22 00:42:34;;;;;;;;;;;;;;;0.61;61.21;95466.13;5064276;28;19924;-70
2024/01/22 00:44:59;;;;;;;;;;;;;;;0.40;62.00;95461.59;5057316;28;19924;-70
2024/01/22 00:47:24;;;;;;;;;;;;;;;-1.47;69.99;95481.91;5057996;28;20022;-66
2024/01/22 00:49:49;;;;;;;;;;;;;;;-1.00;67.81;95485.69;5059562;28;19959;-67
2024/01/22 00:52:15;;;;;;;;;;;;;;;-1.29;69.05;95492.00;5059662;28;20069;-69
2024/01/22 00:54:40;;;;;;;;;;;;;;;-1.05;68.96;95499.06;5056071;28;20704;-67
2024/01/22 00:57:05;;;;;;;;;;;;;;;-2.26;72.98;95508.91;5058605;28;20280;-67
2024/01/22 00:59:30;;;;;;;;;;;;;;;-1.28;71.32;95519.84;5066207;28;20652;-67
2024/01/22 01:01:56;;;;;;;;;;;;;;;-1.75;73.68;95537.78;5058553;28;20340;-67
2024/01/22 01:04:21;;;;;;;;;;;;;;;-1.19;71.00;95515.72;5064642;28;19931;-66
2024/01/22 01:06:46;;;;;;;;;;;;;;;-0.06;64.35;95508.66;5057062;28;19931;-68
2024/01/22 01:09:11;;;;;;;;;;;;;;;-0.24;65.09;95489.91;5075002;28;19931;-68
2024/01/22 01:11:37;;;;;;;;;;;;;;;0.06;65.23;95494.66;5058151;28;19925;-68
2024/01/22 01:14:02;;;;;;;;;;;;;;;0.33;64.05;95496.13;5064533;28;19924;-67
2024/01/22 01:16:28;;;;;;;;;;;;;;;0.23;64.52;95500.38;5057493;28;19921;-68
2024/01/22 01:18:54;;;;;;;;;;;;;;;0.49;62.70;95513.28;5064994;28;19943;-68
2024/01/22 01:21:22;;;;;;;;;;;;;;;-0.00;64.19;95499.50;5057421;28;20293;-66
2024/01/22 01:23:48;;;;;;;;;;;;;;;0.71;61.57;95493.28;5060021;28;20011;-68
2024/01/22 01:26:13;;;;;;;;;;;;;;;0.96;60.36;95473.03;5064507;28;19931;-68
2024/01/22 01:28:38;;;;;;;;;;;;;;;1.24;57.52;95479.53;5060541;28;20124;-67
2024/01/22 01:31:03;;;;;;;;;;;;;;;-0.43;65.25;95475.56;5057677;28;20514;-68
2024/01/22 01:33:29;;;;;;;;;;;;;;;0.34;60.88;95455.03;5057862;28;19983;-68
2024/01/22 01:35:54;;;;;;;;;;;;;;;0.64;61.33;95453.63;5058838;28;19924;-67
2024/01/22 01:38:19;;;;;;;;;;;;;;;1.05;58.64;95435.56;5057146;28;19929;-67
2024/01/22 01:40:44;;;;;;;;;;;;;;;1.35;58.53;95438.47;5063485;28;20645;-68
2024/01/22 01:43:10;;;;;;;;;;;;;;;1.33;58.98;95428.09;5064877;28;20368;-68
2024/01/22 01:45:35;;;;;;;;;;;;;;;1.47;57.20;95419.09;5071274;28;20164;-68
2024/01/22 01:48:00;;;;;;;;;;;;;;;1.84;55.33;95427.56;5068317;28;19994;-67
2024/01/22 01:50:25;;;;;;;;;;;;;;;1.66;56.60;95416.81;5071609;28;20183;-65
2024/01/22 01:52:51;;;;;;;;;;;;;;;1.10;58.79;95436.03;5064351;28;20373;-67
2024/01/22 01:55:16;;;;;;;;;;;;;;;1.51;58.24;95422.31;5049369;28;20313;-68
2024/01/22 01:57:41;;;;;;;;;;;;;;;1.42;57.29;95413.41;5065483;28;19924;-67
2024/01/22 02:00:06;;;;;;;;;;;;;;;0.71;60.14;95397.16;5067609;28;19919;-68
2024/01/22 02:02:32;;;;;;;;;;;;;;;1.46;55.49;95382.50;5064689;28;20140;-69
2024/01/22 02:04:57;;;;;;;;;;;;;;;1.61;57.07;95381.25;5070474;28;19977;-67
2024/01/22 02:07:23;;;;;;;;;;;;;;;1.58;56.41;95389.41;5066504;28;19920;-68
2024/01/22 02:09:49;;;;;;;;;;;;;;;1.70;57.29;95400.66;5069644;28;19931;-66
2024/01/22 02:12:14;;;;;;;;;;;;;;;1.48;57.67;95394.53;5065462;28;20011;-69
2024/01/22 02:14:39;;;;;;;;;;;;;;;0.72;61.51;95393.56;5069081;28;20393;-68
2024/01/22 02:17:05;;;;;;;;;;;;;;;0.61;61.92;95392.78;5066295;28;19993;-67
2024/01/22 02:19:30;;;;;;;;;;;;;;;0.92;59.22;95372.81;5074611;28;20741;-67
2024/01/22 02:21:56;;;;;;;;;;;;;;;0.73;60.45;95370.84;5069640;28;19959;-68
2024/01/22 02:24:21;;;;;;;;;;;;;;;1.43;57.95;95361.78;5070252;28;19924;-68
2024/01/22 02:26:46;;;;;;;;;;;;;;;0.70;61.11;95356.19;5067497;28;19970;-66
2024/01/22 02:29:11;;;;;;;;;;;;;;;1.32;57.79;95355.63;5069146;28;19970;-67
2024/01/22 02:31:37;;;;;;;;;;;;;;;0.78;60.63;95365.22;5071676;28;19956;-68
2024/01/22 02:34:02;;;;;;;;;;;;;;;1.78;56.88;95354.56;5067114;28;19966;-66
2024/01/22 02:36:27;;;;;;;;;;;;;;;1.34;58.11;95358.97;5070228;28;20393;-66
2024/01/22 02:38:52;;;;;;;;;;;;;;;1.33;58.65;95349.41;5067751;28;20338;-69
2024/01/22 02:41:18;;;;;;;;;;;;;;;1.50;57.67;95339.31;5066247;28;20019;-68
2024/01/22 02:43:43;;;;;;;;;;;;;;;1.31;58.82;95346.09;5064073;28;20214;-66
2024/01/22 02:46:08;;;;;;;;;;;;;;;0.83;61.43;95340.31;5071621;28;20182;-68
2024/01/22 02:48:33;;;;;;;;;;;;;;;0.79;60.74;95322.34;5060237;28;19954;-68
2024/01/22 02:50:59;;;;;;;;;;;;;;;-1.32;69.29;95322.47;5068157;28;19980;-67
2024/01/22 02:53:24;;;;;;;;;;;;;;;0.94;60.84;95294.03;5066179;28;19998;-67
2024/01/22 02:55:49;;;;;;;;;;;;;;;1.24;58.82;95298.56;5068690;28;20346;-68
2024/01/22 02:58:14;;;;;;;;;;;;;;;-0.02;64.20;95292.84;5067765;28;19935;-69
2024/01/22 03:00:40;;;;;;;;;;;;;;;1.47;57.06;95260.84;5064324;28;19921;-69
2024/01/22 03:03:05;;;;;;;;;;;;;;;1.80;54.85;95256.34;5048989;28;19936;-66
2024/01/22 03:05:30;;;;;;;;;;;;;;;0.42;61.38;95260.63;5069347;28;19994;-67
2024/01/22 03:07:56;;;;;;;;;;;;;;;0.49;61.82;95267.03;5067611;28;19962;-70
2024/01/22 03:10:21;;;;;;;;;;;;;;;-0.55;68.16;95260.22;5068554;28;19931;-70
2024/01/22 03:12:46;;;;;;;;;;;;;;;0.52;62.38;95237.13;5071320;28;20311;-70
2024/01/22 03:15:11;;;;;;;;;;;;;;;-0.41;66.32;95245.25;5067403;28;19955;-70
2024/01/22 03:17:37;;;;;;;;;;;;;;;0.35;63.40;95249.81;5063176;28;19928;-70
2024/01/22 03:20:02;;;;;;;;;;;;;;;1.16;60.42;95256.38;5060323;28;19963;-71
2024/01/22 03:22:27;;;;;;;;;;;;;;;1.70;58.79;95269.41;5056510;28;19921;-71
2024/01/22 03:24:52;;;;;;;;;;;;;;;1.43;59.69;95273.38;5062966;28;20398;-70
2024/01/22 03:27:18;;;;;;;;;;;;;;;1.91;58.06;95268.56;5063550;28;20193;-71
2024/01/22 03:29:43;;;;;;;;;;;;;;;0.03;62.93;95281.97;5058828;28;19924;-71
2024/01/22 03:32:08;;;;;;;;;;;;;;;1.27;58.23;95271.25;5063048;28;19920;-71
2024/01/22 03:34:34;;;;;;;;;;;;;;;1.59;57.87;95272.13;5062613;28;19920;-71
2024/01/22 03:36:59;;;;;;;;;;;;;;;2.06;57.15;95252.41;5063348;28;20148;-71
2024/01/22 03:39:24;;;;;;;;;;;;;;;2.06;54.98;95226.16;5068137;28;19931;-71
2024/01/22 03:41:50;;;;;;;;;;;;;;;2.19;57.27;95220.66;5058073;28;19931;-69
2024/01/22 03:44:15;;;;;;;;;;;;;;;0.43;63.13;95200.25;5070203;28;20408;-71
2024/01/22 03:46:40;;;;;;;;;;;;;;;1.86;58.41;95200.69;5065695;28;19951;-70
2024/01/22 03:49:05;;;;;;;;;;;;;;;2.39;56.54;95155.84;5062401;28;19971;-71
2024/01/22 03:51:31;;;;;;;;;;;;;;;2.46;54.86;95164.00;5062336;28;19924;-69
2024/01/22 03:53:56;;;;;;;;;;;;;;;2.53;53.67;95144.91;5064598;28;20030;-71
2024/01/22 03:56:21;;;;;;;;;;;;;;;2.47;56.60;95160.41;5061331;28;21729;-71
2024/01/22 03:58:47;;;;;;;;;;;;;;;2.73;53.99;95159.84;5065394;28;19967;-70
2024/01/22 04:01:18;;;;;;;;;;;;;;;2.74;55.71;95148.34;5063369;28;20286;-70
2024/01/22 04:03:43;;;;;;;;;;;;;;;2.29;57.34;95155.84;5062269;28;20201;-71
2024/01/22 04:06:08;;;;;;;;;;;;;;;2.50;55.72;95162.75;5063679;28;20015;-70
2024/01/22 04:08:33;;;;;;;;;;;;;;;2.60;55.00;95142.56;5062915;28;19971;-71
2024/01/22 04:10:59;;;;;;;;;;;;;;;1.97;56.89;95133.25;5059394;28;20182;-71
2024/01/22 04:13:24;;;;;;;;;;;;;;;2.16;58.90;95147.38;5065563;28;19963;-71
2024/01/22 04:15:50;;;;;;;;;;;;;;;1.49;63.18;95139.06;5062943;28;19960;-71
2024/01/22 04:18:16;;;;;;;;;;;;;;;1.43;66.30;95131.72;5061647;28;19935;-70
2024/01/22 04:20:41;;;;;;;;;;;;;;;1.41;66.03;95117.06;5054882;28;19924;-69
2024/01/22 04:23:06;;;;;;;;;;;;;;;0.38;70.51;95117.78;5057675;28;19935;-70
2024/01/22 04:25:31;;;;;;;;;;;;;;;1.64;66.09;95127.41;5055537;28;19924;-71
2024/01/22 04:27:57;;;;;;;;;;;;;;;1.56;66.17;95110.53;5061972;28;19998;-70
2024/01/22 04:30:23;;;;;;;;;;;;;;;2.22;63.25;95107.44;5058857;28;19960;-70
2024/01/22 04:32:48;;;;;;;;;;;;;;;1.84;65.87;95134.34;5041031;28;19955;-70
2024/01/22 04:35:13;;;;;;;;;;;;;;;1.72;66.32;95117.06;5067066;28;19924;-68
2024/01/22 04:37:38;;;;;;;;;;;;;;;1.07;68.72;95115.56;5069617;28;19928;-70
2024/01/22 04:40:10;;;;;;;;;;;;;;;0.98;70.44;95132.91;5064172;28;20023;-69
2024/01/22 04:42:35;;;;;;;;;;;;;;;0.92;68.35;95120.31;5059084;28;20264;-69
2024/01/22 04:45:00;;;;;;;;;;;;;;;1.64;67.30;95127.41;5061288;28;20169;-71
2024/01/22 04:47:26;;;;;;;;;;;;;;;1.75;65.95;95124.66;5072431;28;19971;-69
2024/01/22 04:49:51;;;;;;;;;;;;;;;1.35;68.82;95135.00;5059526;28;19925;-71
2024/01/22 04:52:16;;;;;;;;;;;;;;;0.48;72.44;95147.47;5062852;28;20453;-70
2024/01/22 04:54:41;;;;;;;;;;;;;;;0.52;74.75;95132.34;5062167;28;19943;-69
2024/01/22 04:57:07;;;;;;;;;;;;;;;-0.09;75.79;95172.09;5065540;28;20165;-70
2024/01/22 04:59:32;;;;;;;;;;;;;;;0.16;76.05;95154.41;5064999;28;19963;-70
2024/01/22 05:01:57;;;;;;;;;;;;;;;0.30;75.81;95123.63;5067571;28;19959;-68
2024/01/22 05:04:22;;;;;;;;;;;;;;;-0.52;80.61;95066.44;5061752;28;19975;-70
2024/01/22 05:06:48;;;;;;;;;;;;;;;0.24;76.64;95098.78;5066701;28;20320;-71
2024/01/22 05:09:14;;;;;;;;;;;;;;;0.74;74.69;95058.00;5066893;28;19928;-69
2024/01/22 05:11:40;;;;;;;;;;;;;;;0.96;73.41;95061.44;5064385;28;20034;-71
2024/01/22 05:14:05;;;;;;;;;;;;;;;-0.11;78.19;95116.41;5066476;28;20938;-69
2024/01/22 05:16:30;;;;;;;;;;;;;;;0.34;76.15;95067.41;5068777;28;20424;-69
2024/01/22 05:18:56;;;;;;;;;;;;;;;-0.40;80.30;95121.34;5062003;28;19947;-71
2024/01/22 05:21:21;;;;;;;;;;;;;;;0.33;76.79;95095.41;5061591;28;19935;-71
2024/01/22 05:23:46;;;;;;;;;;;;;;;0.07;77.58;95087.91;5061345;28;19959;-71
2024/01/22 05:26:12;;;;;;;;;;;;;;;0.75;75.25;95119.13;5059835;28;19925;-70
2024/01/22 05:28:37;;;;;;;;;;;;;;;0.45;76.53;95084.88;5068969;28;20748;-68
2024/01/22 05:31:02;;;;;;;;;;;;;;;0.69;75.70;95081.97;5060164;28;19990;-68
2024/01/22 05:33:28;;;;;;;;;;;;;;;0.39;77.07;95086.22;5068649;28;19988;-68
2024/01/22 05:35:53;;;;;;;;;;;;;;;0.48;76.94;95081.97;5061055;28;20366;-69
2024/01/22 05:38:19;;;;;;;;;;;;;;;0.42;76.51;95062.41;5059453;28;19928;-69
2024/01/22 05:40:44;;;;;;;;;;;;;;;0.45;74.42;95038.53;5062563;28;20050;-68
2024/01/22 05:43:09;;;;;;;;;;;;;;;0.14;77.89;95043.72;5060396;28;19925;-68
2024/01/22 05:45:35;;;;;;;;;;;;;;;1.03;73.78;95046.84;5068253;28;20619;-69
2024/01/22 05:48:00;;;;;;;;;;;;;;;0.50;76.91;95046.03;5063739;28;19991;-68
2024/01/22 05:50:25;;;;;;;;;;;;;;;0.45;76.49;95106.66;5064959;28;19920;-68
2024/01/22 05:52:50;;;;;;;;;;;;;;;0.88;75.04;95058.63;5061184;28;20409;-68
2024/01/22 05:55:16;;;;;;;;;;;;;;;0.41;79.24;95073.81;5068079;28;20552;-69
2024/01/22 05:57:41;;;;;;;;;;;;;;;0.31;80.55;95073.75;5065234;28;19931;-69
2024/01/22 06:00:09;;;;;;;;;;;;;;;0.97;78.73;95053.44;5062152;28;20555;-68
2024/01/22 06:02:35;;;;;;;;;;;;;;;0.01;80.10;95075.34;5058822;28;19964;-69
2024/01/22 06:05:00;;;;;;;;;;;;;;;-0.40;87.76;95062.03;5060832;28;20252;-68
2024/01/22 06:07:26;;;;;;;;;;;;;;;-1.15;100.00;95111.38;5064648;28;20042;-66
2024/01/22 06:09:51;;;;;;;;;;;;;;;0.31;100.00;95083.41;5062022;28;19924;-68
2024/01/22 06:12:16;;;;;;;;;;;;;;;0.67;97.88;95056.88;5061503;28;19936;-66
2024/01/22 06:14:42;;;;;;;;;;;;;;;0.86;94.01;95045.66;5066323;28;19916;-67
2024/01/22 06:17:07;;;;;;;;;;;;;;;1.13;85.50;95014.56;5063144;28;19935;-66
2024/01/22 06:19:32;;;;;;;;;;;;;;;1.04;87.00;95031.91;5061605;28;20462;-67
2024/01/22 06:21:57;;;;;;;;;;;;;;;0.12;84.33;95034.34;5064427;28;20014;-65
2024/01/22 06:24:23;;;;;;;;;;;;;;;1.24;84.03;95019.72;5060446;28;20463;-67
2024/01/22 06:26:48;;;;;;;;;;;;;;;1.74;79.66;95025.91;5065794;28;20359;-68
2024/01/22 06:29:13;;;;;;;;;;;;;;;1.98;77.29;95030.72;5073245;28;19931;-67
2024/01/22 06:31:39;;;;;;;;;;;;;;;1.34;80.63;95019.72;5063215;28;19958;-66
2024/01/22 06:34:05;;;;;;;;;;;;;;;1.43;79.04;95018.09;5062563;28;19928;-67
2024/01/22 06:36:31;;;;;;;;;;;;;;;1.50;77.38;95013.97;5061836;28;19949;-67
2024/01/22 06:38:56;;;;;;;;;;;;;;;0.74;77.94;95010.84;5063006;28;20457;-68
2024/01/22 06:41:23;;;;;;;;;;;;;;;1.25;79.65;95029.22;5061396;28;19924;-68
2024/01/22 06:43:48;;;;;;;;;;;;;;;2.11;76.25;95012.06;5063943;28;20325;-68
2024/01/22 06:46:13;;;;;;;;;;;;;;;1.91;73.25;95018.28;5057829;28;20271;-68
2024/01/22 06:48:39;;;;;;;;;;;;;;;1.78;75.31;95016.78;5059086;28;20498;-68
2024/01/22 06:51:04;;;;;;;;;;;;;;;1.83;74.66;95017.19;5063388;28;20304;-68
2024/01/22 06:53:29;;;;;;;;;;;;;;;0.51;76.40;95011.00;5061033;28;19955;-68
2024/01/22 06:55:54;;;;;;;;;;;;;;;2.00;75.23;95012.19;5061312;28;19934;-68
2024/01/22 06:58:20;;;;;;;;;;;;;;;1.50;73.98;95017.41;5063531;28;20336;-69
2024/01/22 07:00:45;;;;;;;;;;;;;;;0.96;73.79;95045.69;5067548;28;20275;-69
2024/01/22 07:03:12;;;;;;;;;;;;;;;1.60;75.95;95012.19;5066076;28;20482;-69
2024/01/22 07:05:37;;;;;;;;;;;;;;;1.16;77.05;95022.97;5059855;28;20076;-69
2024/01/22 07:08:02;;;;;;;;;;;;;;;0.75;77.93;95033.47;5059737;28;19924;-68
2024/01/22 07:10:28;;;;;;;;;;;;;;;1.20;75.91;95023.56;5062287;28;19925;-68
2024/01/22 07:12:53;;;;;;;;;;;;;;;1.33;75.83;95018.88;5066926;28;19950;-69
2024/01/22 07:15:19;;;;;;;;;;;;;;;-0.50;79.00;95033.16;5058404;28;20237;-69
2024/01/22 07:17:44;;;;;;;;;;;;;;;1.04;77.70;95026.69;5059345;28;19924;-69
2024/01/22 07:20:16;;;;;;;;;;;;;;;1.39;74.17;95025.38;5058399;28;19971;-69
2024/01/22 07:22:41;;;;;;;;;;;;;;;-0.06;79.31;95030.50;5055892;28;19924;-69
2024/01/22 07:25:07;;;;;;;;;;;;;;;0.09;80.04;95045.91;5062781;28;20001;-69
2024/01/22 07:27:32;;;;;;;;;;;;;;;0.36;76.20;95044.56;5066219;28;19932;-69
2024/01/22 07:29:57;;;;;;;;;;;;;;;0.36;78.83;95059.44;5063128;28;20058;-69
2024/01/22 07:32:23;;;;;;;;;;;;;;;1.27;77.63;95050.06;5084821;28;20215;-69
2024/01/22 07:34:48;;;;;;;;;;;;;;;0.36;81.60;95073.38;5078888;28;19936;-69
2024/01/22 07:37:13;;;;;;;;;;;;;;;1.15;79.44;95057.19;5079663;28;19943;-69
2024/01/22 07:39:38;;;;;;;;;;;;;;;1.26;78.83;95059.72;5065512;28;20178;-69
2024/01/22 07:42:04;;;;;;;;;;;;;;;0.94;76.70;95065.97;5070597;28;19976;-69
2024/01/22 07:44:31;;;;;;;;;;;;;;;1.08;77.32;95042.03;5073621;28;20727;-69
2024/01/22 07:46:56;;;;;;;;;;;;;;;0.72;79.30;95052.09;5059878;28;20236;-69
2024/01/22 07:49:22;;;;;;;;;;;;;;;1.43;78.58;95042.50;5067146;28;20019;-70
2024/01/22 07:51:47;;;;;;;;;;;;;;;1.85;73.64;95059.91;5069335;28;19924;-70
2024/01/22 07:54:12;;;;;;;;;;;;;;;1.55;76.17;95051.16;5068787;28;20089;-69
2024/01/22 07:56:38;;;;;;;;;;;;;;;2.17;73.00;95065.81;5057376;28;20245;-70
2024/01/22 07:59:03;;;;;;;;;;;;;;;1.24;76.53;95048.56;5068276;28;19924;-69
2024/01/22 08:01:28;;;;;;;;;;;;;;;1.65;76.23;95035.41;5078937;28;19928;-70
2024/01/22 08:03:54;;;;;;;;;;;;;;;1.84;73.90;95042.47;5076479;28;19924;-69
2024/01/22 08:06:20;;;;;;;;;;;;;;;1.24;74.55;95044.16;5060264;28;20138;-70
2024/01/22 08:08:45;;;;;;;;;;;;;;;1.61;75.13;95040.09;5058005;28;20031;-68
2024/01/22 08:11:12;;;;;;;;;;;;;;;2.03;72.34;95032.94;5074158;28;20288;-71
2024/01/22 08:13:38;;;;;;;;;;;;;;;2.62;71.65;95035.47;5061326;28;20176;-70
2024/01/22 08:16:04;;;;;;;;;;;;;;;1.71;73.42;95047.16;5077278;28;20070;-70
2024/01/22 08:18:29;;;;;;;;;;;;;;;2.70;70.12;95052.34;5057292;28;20325;-69
2024/01/22 08:20:54;;;;;;;;;;;;;;;2.45;69.51;95073.81;5071413;28;20243;-69
2024/01/22 08:23:19;;;;;;;;;;;;;;;1.56;75.75;95059.81;5073748;28;19960;-69
2024/01/22 08:25:45;;;;;;;;;;;;;;;1.65;74.44;95063.44;5083777;28;19972;-70
2024/01/22 08:28:10;;;;;;;;;;;;;;;1.24;77.10;95045.94;5070156;28;19974;-70
2024/01/22 08:30:35;;;;;;;;;;;;;;;1.12;79.09;95037.31;5072770;28;19924;-70
2024/01/22 08:33:00;;;;;;;;;;;;;;;1.11;78.02;95041.75;5073049;28;19928;-70
2024/01/22 08:35:26;;;;;;;;;;;;;;;1.65;77.17;95024.91;5075525;28;20510;-70
2024/01/22 08:37:54;;;;;;;;;;;;;;;1.25;77.65;95044.97;5065269;28;20458;-69
2024/01/22 08:40:22;;;;;;;;;;;;;;;1.49;75.33;95042.00;5045586;28;19928;-70
2024/01/22 08:42:54;;;;;;;;;;;;;;;2.14;73.42;95040.69;5063929;28;19932;-70
2024/01/22 08:45:19;;;;;;;;;;;;;;;2.03;73.65;95059.19;5060337;28;19931;-70
2024/01/22 08:47:46;;;;;;;;;;;;;;;1.32;75.07;95067.06;5062184;28;19924;-70
2024/01/22 08:50:23;;;;;;;;;;;;;;;2.44;72.63;95051.16;5063614;28;19983;-71
2024/01/22 08:52:49;;;;;;;;;;;;;;;1.42;77.95;95055.75;5065561;28;19921;-70
2024/01/22 08:55:18;;;;;;;;;;;;;;;0.85;83.83;95044.81;5064807;28;20455;-70
2024/01/22 08:57:44;;;;;;;;;;;;;;;0.93;81.91;95031.06;5067785;28;19924;-69
2024/01/22 09:00:13;;;;;;;;;;;;;;;1.68;77.33;95055.31;5068320;28;20409;-65
2024/01/22 09:02:39;;;;;;;;;;;;;;;2.01;75.47;95063.78;5085148;28;19954;-68
2024/01/22 09:05:05;;;;;;;;;;;;;;;1.65;76.01;95058.19;5078162;28;19946;-68
2024/01/22 09:07:30;;;;;;;;;;;;;;;1.18;78.13;95070.91;5075258;28;19923;-67
2024/01/22 09:09:56;;;;;;;;;;;;;;;0.93;80.96;95065.16;5079432;28;20025;-68
2024/01/22 09:12:22;;;;;;;;;;;;;;;0.69;82.58;95050.53;5081892;28;19924;-67
2024/01/22 09:14:47;;;;;;;;;;;;;;;0.71;80.39;95045.16;5079077;28;19924;-66
2024/01/22 09:17:12;;;;;;;;;;;;;;;1.33;78.58;95042.50;5087397;28;19920;-65
2024/01/22 09:19:37;;;;;;;;;;;;;;;1.22;78.96;95017.22;5072890;28;20164;-66
2024/01/22 09:22:03;;;;;;;;;;;;;;;1.03;79.63;95014.53;5079430;28;20025;-67
2024/01/22 09:24:28;;;;;;;;;;;;;;;1.31;79.59;95015.59;5074431;28;20035;-68
2024/01/22 09:26:53;;;;;;;;;;;;;;;1.85;75.10;95010.03;5070218;28;19924;-66
2024/01/22 09:29:18;;;;;;;;;;;;;;;2.17;74.95;95007.22;5086136;28;20216;-67
2024/01/22 09:31:44;;;;;;;;;;;;;;;2.51;72.73;95004.09;5075805;28;20463;-68
2024/01/22 09:34:10;;;;;;;;;;;;;;;2.31;74.55;95037.50;5077430;28;20369;-68
2024/01/22 09:36:35;;;;;;;;;;;;;;;1.84;76.29;95004.91;5077294;28;19935;-68
2024/01/22 09:39:00;;;;;;;;;;;;;;;1.26;79.11;95009.09;5075975;28;19958;-67
2024/01/22 09:41:27;;;;;;;;;;;;;;;1.95;75.16;95003.91;5070676;28;19928;-68
2024/01/22 09:43:53;;;;;;;;;;;;;;;2.39;72.45;95035.00;5040916;28;20003;-68
2024/01/22 09:46:18;;;;;;;;;;;;;;;1.95;74.52;95002.13;5077395;28;20403;-68
2024/01/22 09:48:43;;;;;;;;;;;;;;;0.98;78.94;95018.38;5082300;28;20373;-68
2024/01/22 09:51:08;;;;;;;;;;;;;;;1.87;75.68;94997.56;5056531;28;20236;-68
2024/01/22 09:53:37;;;;;;;;;;;;;;;1.75;78.24;95003.94;5069524;28;19951;-68
2024/01/22 09:56:02;;;;;;;;;;;;;;;1.92;76.19;95004.19;5079071;28;20753;-67
2024/01/22 09:58:29;;;;;;;;;;;;;;;1.53;77.11;95000.59;5079490;28;20170;-68
2024/01/22 10:00:54;;;;;;;;;;;;;;;1.97;76.90;95001.97;5083621;28;20020;-68
2024/01/22 10:03:20;;;;;;;;;;;;;;;1.59;78.09;95017.56;5086723;28;20472;-68
2024/01/22 10:05:45;;;;;;;;;;;;;;;1.93;76.91;95000.59;5060194;28;19931;-66
2024/01/22 10:08:10;;;;;;;;;;;;;;;1.65;77.15;95039.81;5059823;28;20022;-71
2024/01/22 10:10:37;;;;;;;;;;;;;;;1.05;80.98;94996.88;5072661;28;19952;-68
2024/01/22 10:13:07;;;;;;;;;;;;;;;2.10;76.50;94996.44;5076577;28;20037;-68
2024/01/22 10:15:33;;;;;;;;;;;;;;;1.90;78.16;95000.91;5076214;28;19930;-69
2024/01/22 10:18:07;;;;;;;;;;;;;;;2.45;74.68;94999.44;5075182;28;20102;-68
2024/01/22 10:20:33;;;;;;;;;;;;;;;2.20;74.33;95017.44;5075974;28;19973;-68
2024/01/22 10:23:01;;;;;;;;;;;;;;;2.51;74.48;94996.22;5071903;28;20343;-69
2024/01/22 10:25:26;;;;;;;;;;;;;;;2.00;76.70;95006.94;5044123;28;20454;-68
2024/01/22 10:28:03;;;;;;;;;;;;;;;2.69;73.62;95004.19;5074947;28;19931;-68
2024/01/22 10:30:28;;;;;;;;;;;;;;;2.07;76.90;95004.59;5052343;28;19925;-67
2024/01/22 10:33:07;;;;;;;;;;;;;;;1.37;80.34;94986.16;5073389;28;19935;-69
2024/01/22 10:35:32;;;;;;;;;;;;;;;0.85;82.74;95002.03;5052046;28;19920;-68
2024/01/22 10:38:24;;;;;;;;;;;;;;;1.31;81.00;94997.22;5068802;28;19959;-68
2024/01/22 10:40:49;;;;;;;;;;;;;;;1.43;79.38;95004.97;5068102;28;20684;-69
2024/01/22 10:43:21;;;;;;;;;;;;;;;1.45;78.81;95005.66;5067083;28;19924;-69
2024/01/22 10:45:50;;;;;;;;;;;;;;;0.74;81.87;95010.84;5067295;28;19924;-69
2024/01/22 10:48:15;;;;;;;;;;;;;;;1.69;77.87;94992.19;5075603;28;19930;-67
2024/01/22 10:50:41;;;;;;;;;;;;;;;1.32;80.03;94995.41;5077593;28;19924;-68
2024/01/22 10:53:06;;;;;;;;;;;;;;;1.14;78.80;94980.34;5063542;28;19924;-69
2024/01/22 10:55:32;;;;;;;;;;;;;;;1.41;78.94;94986.75;5082187;28;19971;-69
2024/01/22 10:57:57;;;;;;;;;;;;;;;1.62;79.47;94988.44;5069290;28;19988;-68
2024/01/22 11:00:22;;;;;;;;;;;;;;;1.90;77.33;94982.53;5056716;28;19974;-69
2024/01/22 11:02:48;;;;;;;;;;;;;;;2.30;76.19;94981.47;5052072;28;20327;-68
2024/01/22 11:05:14;;;;;;;;;;;;;;;1.37;78.18;94972.25;5066990;28;20341;-68
2024/01/22 11:07:39;;;;;;;;;;;;;;;2.04;76.78;94970.75;5069244;28;19994;-70
2024/01/22 11:10:05;;;;;;;;;;;;;;;2.04;77.03;94955.81;5073777;28;19924;-67
2024/01/22 11:12:31;;;;;;;;;;;;;;;2.16;75.52;94958.28;5041334;28;20003;-68
2024/01/22 11:14:56;;;;;;;;;;;;;;;2.24;74.60;94961.03;5051226;28;20324;-69
2024/01/22 11:17:21;;;;;;;;;;;;;;;2.29;75.99;94956.19;5062194;28;19928;-69
2024/01/22 11:19:47;;;;;;;;;;;;;;;2.30;75.42;94949.97;5082700;28;19988;-71
2024/01/22 11:22:23;;;;;;;;;;;;;;;1.85;78.07;94970.63;5074036;28;20357;-71
2024/01/22 11:25:01;;;;;;;;;;;;;;;1.85;79.24;94944.38;5057798;28;20015;-71
2024/01/22 11:27:39;;;;;;;;;;;;;;;1.90;78.10;94943.13;5068949;28;20435;-72
2024/01/22 11:30:19;;;;;;;;;;;;;;;0.63;81.33;94946.25;5078864;28;19924;-72
2024/01/22 11:32:44;;;;;;;;;;;;;;;1.56;82.66;94950.47;5069011;28;20562;-73
2024/01/22 11:35:10;;;;;;;;;;;;;;;2.44;78.58;94932.06;5076467;28;20057;-77
2024/01/22 11:37:36;;;;;;;;;;;;;;;1.78;80.14;94929.31;5080248;28;20385;-76
2024/01/22 11:40:02;;;;;;;;;;;;;;;2.08;78.76;94920.41;5044500;28;20022;-76
2024/01/22 11:42:28;;;;;;;;;;;;;;;2.49;74.59;94920.16;5053765;28;19969;-71
2024/01/22 11:45:12;;;;;;;;;;;;;;;2.46;75.39;94911.75;5069132;28;20430;-62
2024/01/22 11:47:41;;;;;;;;;;;;;;;2.57;74.85;94898.41;5070521;28;20637;-63
2024/01/22 11:50:07;;;;;;;;;;;;;;;3.05;73.68;94900.91;5075647;28;20475;-64
2024/01/22 11:52:33;;;;;;;;;;;;;;;3.56;71.40;94895.16;5068627;28;19924;-63
2024/01/22 11:54:59;;;;;;;;;;;;;;;3.48;71.30;94905.63;5075169;28;19929;-64
2024/01/22 11:57:24;;;;;;;;;;;;;;;3.89;69.92;94902.50;5082419;28;19923;-63
2024/01/22 12:00:19;;;;;;;;;;;;;;;2.11;78.01;94909.63;5078437;28;19928;-64
2024/01/22 12:02:45;;;;;;;;;;;;;;;3.05;71.83;94903.56;5072036;28;19928;-64
2024/01/22 12:05:12;;;;;;;;;;;;;;;2.23;77.03;94910.31;5078750;28;19923;-63
2024/01/22 12:07:38;;;;;;;;;;;;;;;2.42;77.88;94894.63;5079875;28;20242;-64
2024/01/22 12:10:06;;;;;;;;;;;;;;;1.79;79.26;94905.56;5056210;28;19931;-63
2024/01/22 12:12:32;;;;;;;;;;;;;;;1.81;76.48;94908.06;5068758;28;19928;-65
2024/01/22 12:14:57;;;;;;;;;;;;;;;0.68;87.08;94930.97;5073032;28;20366;-64
2024/01/22 12:17:23;;;;;;;;;;;;;;;0.72;88.56;94916.63;5082920;28;20241;-64
2024/01/22 12:19:52;;;;;;;;;;;;;;;0.77;86.96;94913.63;5077322;28;19925;-63
2024/01/22 12:22:18;;;;;;;;;;;;;;;0.56;90.86;94909.28;5065133;28;19932;-63
2024/01/22 12:24:44;;;;;;;;;;;;;;;0.79;92.84;94890.72;5075007;28;19930;-62
2024/01/22 12:27:09;;;;;;;;;;;;;;;0.88;90.50;94917.09;5073131;28;19930;-63
2024/01/22 12:29:34;;;;;;;;;;;;;;;0.68;91.31;94907.38;5074032;28;19969;-62
2024/01/22 12:32:02;;;;;;;;;;;;;;;1.06;88.56;94910.22;5077724;28;19968;-63
2024/01/22 12:34:28;;;;;;;;;;;;;;;1.07;88.50;94905.81;5070818;28;20075;-63
2024/01/22 12:36:53;;;;;;;;;;;;;;;0.44;94.36;94907.72;5062637;28;20401;-63
2024/01/22 12:39:18;;;;;;;;;;;;;;;0.55;92.30;94925.13;5069597;28;19974;-62
2024/01/22 12:41:44;;;;;;;;;;;;;;;0.40;91.23;94891.44;5062856;28;19999;-63
2024/01/22 12:44:12;;;;;;;;;;;;;;;0.30;91.44;94899.25;5074722;28;19928;-61
2024/01/22 12:46:37;;;;;;;;;;;;;;;1.05;87.85;94889.38;5048889;28;20101;-63
2024/01/22 12:49:03;;;;;;;;;;;;;;;0.96;88.89;94893.66;5073683;28;19952;-63